KSNY/SNY METAR and TAF weather

Enter ICAO airport designator
Station Type Date Time Source
KSNY METAR 2022/06/28 23:53 UTC NOAA

KSNY 282353Z AUTO 10010KT 10SM CLR 35/01 A3010 RMK AO2 SLP139 T03500006 10350 20311 58016


Station Type Date Time Source
KSNY Decoded METAR 2022/06/28 23:53 UTC NOAA

SIDNEY MUNICIPAL AIRPORT, NE, United States (KSNY) 41-06N 102-59W 1307M
Jun 28, 2022 - 07:53 PM EDT / 2022.06.28 2353 UTC
Wind: from the E (100 degrees) at 12 MPH (10 KT):0
Visibility: 10 mile(s):0
Sky conditions: clear
Temperature: 95.0 F (35.0 C)
Dew Point: 33.1 F (0.6 C)
Relative Humidity: 11%
Pressure (altimeter): 30.1 in. Hg (1019 hPa)
Pressure tendency: 0.05 inches (1.6 hPa) lower than three hours ago
ob: KSNY 282353Z AUTO 10010KT 10SM CLR 35/01 A3010 RMK AO2 SLP139 T03500006 10350 20311 58016
cycle: 0

Station Type Date Time Source
KSNY TAF 2022/06/28 18:30 UTC NOAA

TAF KSNY 281724Z 2818/2918 12008KT P6SM SKC
FM290300 16010KT P6SM FEW250
FM290600 20010KT P6SM FEW250

Example: see airport list